createdAt,value
2022-11-30T00:03:12.406Z,15.30
2022-11-30T00:08:17.687Z,15.40
2022-11-30T00:13:21.273Z,14.67
2022-11-30T00:18:24.724Z,14.40
2022-11-30T00:23:33.502Z,12.90
2022-11-30T00:28:37.819Z,19.77
2022-11-30T00:33:41.714Z,13.47
2022-11-30T00:38:47.774Z,11.07
2022-11-30T00:43:51.448Z,21.13
2022-11-30T00:48:54.939Z,21.13
2022-11-30T00:53:59.940Z,27.97
2022-11-30T00:59:03.445Z,25.87
2022-11-30T01:04:07.907Z,25.70
2022-11-30T01:09:12.924Z,25.27
2022-11-30T01:14:16.443Z,25.63
2022-11-30T01:19:19.909Z,29.17
2022-11-30T01:24:24.903Z,33.90
2022-11-30T01:29:28.392Z,30.07
2022-11-30T01:34:31.990Z,35.73
2022-11-30T01:39:36.960Z,29.27
2022-11-30T01:44:53.402Z,35.77
2022-11-30T01:50:03.273Z,35.17
2022-11-30T01:55:17.665Z,30.93
2022-11-30T02:00:22.105Z,34.00
2022-11-30T02:05:27.346Z,34.70
2022-11-30T02:10:35.481Z,35.43
2022-11-30T02:15:49.744Z,33.63
2022-11-30T02:21:04.327Z,31.67
2022-11-30T02:26:19.884Z,29.27
2022-11-30T02:31:29.613Z,29.00
2022-11-30T02:36:33.972Z,34.57
2022-11-30T02:41:38.943Z,28.80
2022-11-30T02:47:08.967Z,28.13
2022-11-30T02:52:14.279Z,26.53
2022-11-30T02:57:17.950Z,26.67
2022-11-30T03:02:22.959Z,22.00
2022-11-30T03:07:26.533Z,20.07
2022-11-30T03:12:30.419Z,26.23
2022-11-30T03:17:35.466Z,35.73
2022-11-30T03:22:38.955Z,32.87
2022-11-30T03:27:42.504Z,29.90
2022-11-30T03:32:47.464Z,36.83
2022-11-30T03:37:50.991Z,34.47
2022-11-30T03:42:54.445Z,33.63
2022-11-30T03:48:02.410Z,33.40
2022-11-30T03:53:05.977Z,30.63
2022-11-30T03:58:09.526Z,33.87
2022-11-30T04:03:14.532Z,30.87
2022-11-30T04:08:18.122Z,32.37
2022-11-30T04:13:22.146Z,30.57
2022-11-30T04:18:28.936Z,34.17
2022-11-30T04:23:34.116Z,33.50
2022-11-30T04:28:37.772Z,33.87
2022-11-30T04:33:42.804Z,35.93
2022-11-30T04:38:46.674Z,35.10
2022-11-30T04:43:50.356Z,33.83
2022-11-30T04:48:55.410Z,35.73
2022-11-30T04:53:59.032Z,37.00
2022-11-30T04:59:03.032Z,36.90
2022-11-30T05:04:08.171Z,33.43
2022-11-30T05:09:11.710Z,38.03
2022-11-30T05:14:15.221Z,35.00
2022-11-30T05:19:21.058Z,33.77
2022-11-30T05:24:24.567Z,33.23
2022-11-30T05:29:28.079Z,29.37
2022-11-30T05:34:49.447Z,32.67
2022-11-30T05:39:53.973Z,33.60
2022-11-30T05:44:57.417Z,28.57
2022-11-30T05:50:02.530Z,31.93
2022-11-30T05:55:06.813Z,24.47
2022-11-30T06:00:13.059Z,28.67
2022-11-30T06:05:18.292Z,29.10
2022-11-30T06:10:21.733Z,25.33
2022-11-30T06:15:25.332Z,31.37
2022-11-30T06:20:30.364Z,27.30
2022-11-30T06:25:34.116Z,30.23
2022-11-30T06:30:37.797Z,25.10
2022-11-30T06:35:48.011Z,30.37
2022-11-30T06:40:51.666Z,29.60
2022-11-30T06:45:55.235Z,26.93
2022-11-30T06:51:00.625Z,27.97
2022-11-30T06:56:10.499Z,28.27
2022-11-30T07:01:16.500Z,26.80
2022-11-30T07:06:21.457Z,29.20
2022-11-30T07:11:24.958Z,27.83
2022-11-30T07:16:28.460Z,23.37
2022-11-30T07:21:33.523Z,24.53
2022-11-30T07:26:37.172Z,24.23
2022-11-30T07:31:40.848Z,24.13
2022-11-30T07:36:46.762Z,24.13
2022-11-30T07:41:50.460Z,21.47
2022-11-30T07:46:54.005Z,22.83
2022-11-30T07:51:59.069Z,23.30
2022-11-30T07:57:02.710Z,20.70
2022-11-30T08:02:06.331Z,24.33
2022-11-30T08:07:11.481Z,23.60
2022-11-30T08:12:15.144Z,19.27
2022-11-30T08:17:18.928Z,21.97
2022-11-30T08:22:23.974Z,23.83
2022-11-30T08:27:27.756Z,24.90
2022-11-30T08:32:32.552Z,22.23
2022-11-30T08:37:39.529Z,22.20
2022-11-30T08:42:43.211Z,21.97
2022-11-30T08:47:47.125Z,21.13
2022-11-30T08:52:52.076Z,23.50
2022-11-30T08:57:55.672Z,19.50
2022-11-30T09:02:59.222Z,20.80
2022-11-30T09:08:04.854Z,20.70
2022-11-30T09:13:08.507Z,20.43
2022-11-30T09:18:13.330Z,20.40
2022-11-30T09:23:18.307Z,17.63
2022-11-30T09:28:21.940Z,20.93
2022-11-30T09:33:25.466Z,19.80
2022-11-30T09:38:31.048Z,20.50
2022-11-30T09:43:43.305Z,20.90
2022-11-30T09:48:55.753Z,15.90
2022-11-30T09:54:06.994Z,17.97
2022-11-30T09:59:22.768Z,18.73
2022-11-30T10:04:28.992Z,20.23
2022-11-30T10:10:08.948Z,18.43
2022-11-30T10:15:22.887Z,17.30
2022-11-30T10:20:42.375Z,18.17
2022-11-30T10:25:56.058Z,13.97
2022-11-30T10:31:01.703Z,16.57
2022-11-30T10:36:11.772Z,18.40
2022-11-30T10:41:21.609Z,17.00
2022-11-30T10:46:30.070Z,15.47
2022-11-30T10:51:35.759Z,15.07
2022-11-30T10:56:40.806Z,14.63
2022-11-30T11:01:44.668Z,13.33
2022-11-30T11:06:50.487Z,12.53
2022-11-30T11:11:57.857Z,11.67
2022-11-30T11:17:03.112Z,14.37
2022-11-30T11:22:08.980Z,12.47
2022-11-30T11:27:25.107Z,12.83
2022-11-30T11:32:28.834Z,12.30
2022-11-30T11:37:34.189Z,12.60
2022-11-30T11:42:45.064Z,13.73
2022-11-30T11:47:57.807Z,12.77
2022-11-30T11:53:23.101Z,13.70
2022-11-30T11:58:38.518Z,13.37
2022-11-30T12:03:59.038Z,13.80
2022-11-30T12:09:08.269Z,13.17
2022-11-30T12:14:16.876Z,12.60
2022-11-30T12:19:23.537Z,14.00
2022-11-30T12:24:42.074Z,12.70
2022-11-30T12:30:01.583Z,13.83
2022-11-30T12:35:19.265Z,13.27
2022-11-30T12:40:34.234Z,11.90
2022-11-30T12:45:49.328Z,12.40
2022-11-30T12:51:02.224Z,12.83
2022-11-30T12:56:17.412Z,12.83
2022-11-30T13:01:48.800Z,11.90
2022-11-30T13:07:31.176Z,12.37
2022-11-30T13:12:53.347Z,11.63
2022-11-30T13:18:20.448Z,13.83
2022-11-30T13:23:36.189Z,13.10
2022-11-30T13:29:40.856Z,12.80
2022-11-30T13:35:03.891Z,14.23
2022-11-30T13:40:31.196Z,13.83
2022-11-30T13:45:45.198Z,15.87
2022-11-30T13:51:01.165Z,14.80
2022-11-30T13:56:32.608Z,14.40
2022-11-30T14:01:36.243Z,14.47
2022-11-30T14:06:55.655Z,17.13
2022-11-30T14:12:12.338Z,17.30
2022-11-30T14:17:30.332Z,17.40
2022-11-30T14:22:43.261Z,16.17
2022-11-30T14:27:47.038Z,18.53
2022-11-30T14:32:57.297Z,19.57
2022-11-30T14:38:03.878Z,18.07
2022-11-30T14:43:09.068Z,17.57
2022-11-30T14:48:15.909Z,17.97
2022-11-30T14:53:33.832Z,17.43
2022-11-30T14:58:45.368Z,18.50
2022-11-30T15:03:50.650Z,20.37
2022-11-30T15:08:58.743Z,18.97
2022-11-30T15:14:14.161Z,19.50
2022-11-30T15:19:23.136Z,21.27
2022-11-30T15:24:30.072Z,20.40
2022-11-30T15:29:36.658Z,19.50
2022-11-30T15:34:52.218Z,21.70
2022-11-30T15:40:02.722Z,20.77
2022-11-30T15:45:16.404Z,21.00
2022-11-30T15:50:39.486Z,21.47
2022-11-30T15:55:47.089Z,20.57
2022-11-30T16:01:05.783Z,23.93
2022-11-30T16:06:19.329Z,22.10
2022-11-30T16:11:26.839Z,21.37
2022-11-30T16:16:32.573Z,24.93
2022-11-30T16:21:36.697Z,23.47
2022-11-30T16:26:52.710Z,22.27
2022-11-30T16:31:58.916Z,22.47
2022-11-30T16:37:07.955Z,22.90
2022-11-30T16:42:21.314Z,21.03
2022-11-30T16:47:27.529Z,50.53
2022-11-30T16:52:37.146Z,25.00
2022-11-30T16:57:44.284Z,23.90
2022-11-30T17:03:03.455Z,20.60
2022-11-30T17:08:15.763Z,22.97
2022-11-30T17:13:33.008Z,20.23
2022-11-30T17:18:56.281Z,18.20
2022-11-30T17:24:07.084Z,22.43
2022-11-30T17:29:15.127Z,17.83
2022-11-30T17:34:21.364Z,17.63
2022-11-30T17:39:28.079Z,18.47
2022-11-30T17:44:34.734Z,18.33
2022-11-30T17:49:39.595Z,19.00
2022-11-30T17:54:50.221Z,20.30
2022-11-30T18:00:01.199Z,20.63
2022-11-30T18:05:05.812Z,19.50
2022-11-30T18:10:12.390Z,20.57
2022-11-30T18:15:21.733Z,18.70
2022-11-30T18:20:26.308Z,20.53
2022-11-30T18:25:31.035Z,19.80
2022-11-30T18:30:45.420Z,20.60
2022-11-30T18:35:52.842Z,22.67
2022-11-30T18:41:02.452Z,19.50
2022-11-30T18:46:11.312Z,23.03
2022-11-30T18:51:18.366Z,22.17
2022-11-30T18:56:24.154Z,20.90
2022-11-30T19:01:36.779Z,21.37
2022-11-30T19:06:43.774Z,19.70
2022-11-30T19:11:52.103Z,21.40
2022-11-30T19:17:00.706Z,22.27
2022-11-30T19:22:08.474Z,19.63
2022-11-30T19:27:15.144Z,20.03
2022-11-30T19:32:23.809Z,21.03
2022-11-30T19:37:29.113Z,20.00
2022-11-30T19:42:35.901Z,22.67
2022-11-30T19:47:46.167Z,19.10
2022-11-30T19:52:53.090Z,21.90
2022-11-30T19:57:58.720Z,20.13
2022-11-30T20:03:10.871Z,20.83
2022-11-30T20:08:18.522Z,21.03
2022-11-30T20:13:37.045Z,20.07
2022-11-30T20:18:46.671Z,21.13
2022-11-30T20:23:53.640Z,20.23
2022-11-30T20:29:07.234Z,21.47
2022-11-30T20:34:17.831Z,19.67
2022-11-30T20:39:25.443Z,21.50
2022-11-30T20:44:36.108Z,21.03
2022-11-30T20:49:57.946Z,21.83
2022-11-30T20:55:04.499Z,20.77
2022-11-30T21:00:20.182Z,19.43
2022-11-30T21:05:34.148Z,20.80
2022-11-30T21:10:48.464Z,20.37
2022-11-30T21:15:58.062Z,20.83
2022-11-30T21:21:17.690Z,21.43
2022-11-30T21:26:26.890Z,21.27
2022-11-30T21:31:48.791Z,22.97
2022-11-30T21:37:09.739Z,20.53
2022-11-30T21:42:20.866Z,22.97
2022-11-30T21:47:25.919Z,21.93
2022-11-30T21:52:47.944Z,22.97
2022-11-30T21:57:56.122Z,19.10
2022-11-30T22:03:04.410Z,22.77
2022-11-30T22:08:14.314Z,18.90
2022-11-30T22:13:18.077Z,20.93
2022-11-30T22:18:26.666Z,22.60
2022-11-30T22:23:33.897Z,22.43
2022-11-30T22:28:49.517Z,23.67
2022-11-30T22:33:55.803Z,22.93
2022-11-30T22:39:14.411Z,24.80
2022-11-30T22:44:23.073Z,24.53
2022-11-30T22:49:29.148Z,25.17
2022-11-30T22:54:37.879Z,26.07
2022-11-30T22:59:41.727Z,25.23
2022-11-30T23:04:45.953Z,25.00
2022-11-30T23:10:01.532Z,25.53
2022-11-30T23:15:13.806Z,24.43
2022-11-30T23:20:22.869Z,27.57
2022-11-30T23:25:32.615Z,28.30
2022-11-30T23:37:16.114Z,25.87
2022-11-30T23:42:32.581Z,27.50
2022-11-30T23:47:39.454Z,24.43
2022-11-30T23:52:44.971Z,27.63
2022-11-30T23:57:52.819Z,25.90
